Time;durP1;ratioP1;P1;durP2;ratioP2;P2;SDS_P1;SDS_P2;PMS_P1;PMS_P2;Temp;Humidity;BMP_temperature;BMP_pressure;BME280_temperature;BME280_humidity;BME280_pressure;Samples;Min_cycle;Max_cycle;Signal;HPM_P1;HPM_P2
2022/03/05 00:01:27;;;;;;;5.50;5.00;;;15.00;59.40;;;;;;4048721;29;20048;-62
2022/03/05 00:03:50;;;;;;;6.30;5.47;;;15.00;59.50;;;;;;4048130;29;20043;-62
2022/03/05 00:06:13;;;;;;;5.40;4.90;;;15.00;59.20;;;;;;4063240;29;20056;-62
2022/03/05 00:08:35;;;;;;;5.97;5.18;;;15.10;59.40;;;;;;4063143;29;20466;-62
2022/03/05 00:10:59;;;;;;;5.30;4.80;;;15.10;59.30;;;;;;4062821;29;20147;-61
2022/03/05 00:13:21;;;;;;;5.47;4.82;;;15.10;59.90;;;;;;4061766;29;20048;-62
2022/03/05 00:15:43;;;;;;;5.38;4.68;;;15.20;60.10;;;;;;4062862;29;20048;-62
2022/03/05 00:18:06;;;;;;;6.18;5.43;;;15.30;59.90;;;;;;4052635;29;20100;-61
2022/03/05 00:20:28;;;;;;;6.22;5.10;;;15.40;59.50;;;;;;4062957;29;20103;-62
2022/03/05 00:22:52;;;;;;;6.10;5.13;;;15.40;59.20;;;;;;4062887;29;20071;-63
2022/03/05 00:25:15;;;;;;;8.07;4.85;;;15.50;59.10;;;;;;4062763;29;20048;-62
2022/03/05 00:27:39;;;;;;;5.40;4.90;;;15.50;59.00;;;;;;4062224;29;20107;-62
2022/03/05 00:30:01;;;;;;;6.60;5.35;;;15.50;58.90;;;;;;4056900;29;20467;-62
2022/03/05 00:32:23;;;;;;;5.72;5.03;;;15.50;58.80;;;;;;4059909;29;20128;-62
2022/03/05 00:34:45;;;;;;;5.88;5.28;;;15.50;58.70;;;;;;4062852;29;20048;-62
2022/03/05 00:37:09;;;;;;;6.93;5.25;;;15.50;58.70;;;;;;4062834;29;20072;-61
2022/03/05 00:39:33;;;;;;;7.03;5.00;;;15.50;58.70;;;;;;4062540;29;20064;-62
2022/03/05 00:41:55;;;;;;;6.80;5.53;;;15.50;58.80;;;;;;4062793;29;20144;-61
2022/03/05 00:44:19;;;;;;;5.90;4.75;;;15.50;58.90;;;;;;4053360;29;20057;-60
2022/03/05 00:46:42;;;;;;;8.02;5.90;;;15.50;59.00;;;;;;4048405;29;20060;-60
2022/03/05 00:49:04;;;;;;;6.85;5.60;;;15.50;59.00;;;;;;4047457;29;20048;-60
2022/03/05 00:51:27;;;;;;;6.13;5.43;;;15.50;58.90;;;;;;4047311;29;20072;-60
2022/03/05 00:53:49;;;;;;;5.93;5.32;;;15.50;59.00;;;;;;4059384;29;20629;-61
2022/03/05 00:56:12;;;;;;;5.88;5.35;;;15.50;58.90;;;;;;4047304;29;20053;-61
2022/03/05 00:58:35;;;;;;;6.70;5.43;;;15.50;59.00;;;;;;4047734;29;20044;-61
2022/03/05 01:00:58;;;;;;;7.32;5.80;;;15.50;59.00;;;;;;4057809;29;20163;-60
2022/03/05 01:03:22;;;;;;;6.47;5.68;;;15.50;58.90;;;;;;4055726;29;20067;-61
2022/03/05 01:05:44;;;;;;;7.13;5.30;;;15.60;59.00;;;;;;4048319;29;20048;-61
2022/03/05 01:08:06;;;;;;;5.82;5.22;;;15.60;58.70;;;;;;4062276;29;20080;-60
2022/03/05 01:10:28;;;;;;;5.85;5.22;;;15.60;58.60;;;;;;4064329;29;20044;-60
2022/03/05 01:12:50;;;;;;;5.80;5.20;;;15.60;58.60;;;;;;4049912;29;20495;-61
2022/03/05 01:15:13;;;;;;;7.03;5.20;;;15.60;59.30;;;;;;4051402;29;20045;-66
2022/03/05 01:17:36;;;;;;;7.18;5.60;;;15.60;58.60;;;;;;4050314;29;20566;-66
2022/03/05 01:19:59;;;;;;;6.68;5.10;;;15.50;58.60;;;;;;4050285;29;20069;-66
2022/03/05 01:22:21;;;;;;;6.70;4.68;;;15.50;58.70;;;;;;4050752;29;20071;-68
2022/03/05 01:24:44;;;;;;;6.82;5.88;;;15.50;58.80;;;;;;4051133;29;20084;-65
2022/03/05 01:27:06;;;;;;;5.90;5.40;;;15.60;58.90;;;;;;4065237;29;20081;-67
2022/03/05 01:29:29;;;;;;;6.20;5.28;;;15.60;58.70;;;;;;4064808;29;20100;-66
2022/03/05 01:31:51;;;;;;;6.68;5.78;;;15.70;58.40;;;;;;4064878;29;20051;-68
2022/03/05 01:34:15;;;;;;;6.50;5.40;;;15.70;58.40;;;;;;4064956;29;20087;-66
2022/03/05 01:36:38;;;;;;;6.43;5.70;;;15.70;58.20;;;;;;4064652;29;20036;-66
2022/03/05 01:39:00;;;;;;;6.97;5.65;;;15.70;58.20;;;;;;4055761;29;20104;-66
2022/03/05 01:41:22;;;;;;;5.85;5.32;;;15.70;58.30;;;;;;4048423;29;20051;-67
2022/03/05 01:43:50;;;;;;;6.93;5.28;;;15.70;58.30;;;;;;4050026;29;20049;-66
2022/03/05 01:46:12;;;;;;;7.43;5.88;;;15.80;58.10;;;;;;4050144;29;20049;-66
2022/03/05 01:48:34;;;;;;;6.80;6.07;;;15.90;57.90;;;;;;4049601;29;20108;-66
2022/03/05 01:50:58;;;;;;;7.40;5.20;;;15.90;57.80;;;;;;4063036;29;20052;-66
2022/03/05 01:53:20;;;;;;;6.85;5.60;;;15.90;57.60;;;;;;4064838;29;20098;-67
2022/03/05 01:55:43;;;;;;;5.93;5.32;;;15.90;57.60;;;;;;4052265;29;20052;-68
2022/03/05 01:58:05;;;;;;;6.40;5.75;;;16.00;57.60;;;;;;4049947;29;20103;-69
2022/03/05 02:00:27;;;;;;;7.85;5.90;;;16.00;57.40;;;;;;4050525;29;20064;-68
2022/03/05 02:02:49;;;;;;;6.68;5.70;;;16.00;57.30;;;;;;4064353;29;20052;-68
2022/03/05 02:05:13;;;;;;;6.93;5.57;;;16.00;57.30;;;;;;4049296;29;20072;-67
2022/03/05 02:07:37;;;;;;;7.15;6.40;;;15.90;57.30;;;;;;4049270;29;20109;-67
2022/03/05 02:09:59;;;;;;;8.02;6.35;;;15.90;57.40;;;;;;4048960;29;20063;-67
2022/03/05 02:12:28;;;;;;;7.07;6.38;;;15.90;57.50;;;;;;4060452;29;20577;-68
2022/03/05 02:14:51;;;;;;;7.10;5.57;;;16.00;57.30;;;;;;4064666;29;20055;-68
2022/03/05 02:17:13;;;;;;;7.57;6.45;;;16.00;57.20;;;;;;4047359;29;20055;-67
2022/03/05 02:19:36;;;;;;;8.45;6.15;;;16.10;56.90;;;;;;4048870;29;20100;-68
2022/03/05 02:21:59;;;;;;;6.80;6.07;;;16.10;56.90;;;;;;4049396;29;20399;-66
2022/03/05 02:24:32;;;;;;;5.90;5.30;;;16.10;56.80;;;;;;4049255;29;20052;-67
2022/03/05 02:26:54;;;;;;;8.30;5.68;;;16.10;56.80;;;;;;4049187;29;20160;-66
2022/03/05 02:29:16;;;;;;;6.60;6.03;;;16.00;57.00;;;;;;4050076;29;20053;-67
2022/03/05 02:31:38;;;;;;;7.07;5.45;;;16.00;57.00;;;;;;4059965;29;20131;-66
2022/03/05 02:34:00;;;;;;;5.97;5.43;;;16.10;57.00;;;;;;4064518;29;20059;-67
2022/03/05 02:36:23;;;;;;;6.00;5.28;;;16.20;56.80;;;;;;4062952;29;20135;-66
2022/03/05 02:38:46;;;;;;;7.30;6.00;;;16.20;56.60;;;;;;4064252;29;20721;-66
2022/03/05 02:41:09;;;;;;;6.63;5.68;;;16.20;56.40;;;;;;4064801;29;20052;-65
2022/03/05 02:43:31;;;;;;;8.48;5.75;;;16.30;56.40;;;;;;4064048;29;20051;-66
2022/03/05 02:45:54;;;;;;;6.22;5.57;;;16.20;56.30;;;;;;4051554;29;20482;-66
2022/03/05 02:48:17;;;;;;;6.82;5.38;;;16.20;56.40;;;;;;4049569;29;20056;-66
2022/03/05 02:50:41;;;;;;;6.50;5.20;;;16.10;56.50;;;;;;4048746;29;20435;-65
2022/03/05 02:53:04;;;;;;;6.40;5.78;;;16.10;56.60;;;;;;4047540;29;20059;-66
2022/03/05 02:55:28;;;;;;;5.55;5.00;;;16.10;56.70;;;;;;4047668;29;20060;-66
2022/03/05 02:57:50;;;;;;;5.68;5.18;;;16.10;56.70;;;;;;4048785;29;20059;-66
2022/03/05 03:00:13;;;;;;;5.47;4.68;;;16.00;56.70;;;;;;4051243;29;20055;-66
2022/03/05 03:02:35;;;;;;;5.68;4.57;;;16.00;56.70;;;;;;4048637;29;20099;-67
2022/03/05 03:04:57;;;;;;;5.97;5.00;;;15.90;56.80;;;;;;4033845;29;20150;-66
2022/03/05 03:07:19;;;;;;;5.03;4.63;;;15.90;56.90;;;;;;4047833;29;20052;-66
2022/03/05 03:09:42;;;;;;;4.93;4.50;;;15.90;56.90;;;;;;4048073;29;20052;-66
2022/03/05 03:12:07;;;;;;;5.07;4.68;;;16.00;56.90;;;;;;4047853;29;20060;-66
2022/03/05 03:14:29;;;;;;;6.68;5.15;;;15.90;56.90;;;;;;4047456;29;20072;-66
2022/03/05 03:16:51;;;;;;;5.50;5.00;;;15.90;56.90;;;;;;4060614;29;20048;-66
2022/03/05 03:19:14;;;;;;;5.97;5.38;;;16.00;56.90;;;;;;4033538;29;20064;-66
2022/03/05 03:21:36;;;;;;;5.80;4.95;;;15.90;56.90;;;;;;4046661;29;20048;-66
2022/03/05 03:23:59;;;;;;;5.07;4.57;;;16.00;56.90;;;;;;4047980;29;20048;-65
2022/03/05 03:26:21;;;;;;;10.10;4.95;;;16.10;56.70;;;;;;4047618;29;20222;-66
2022/03/05 03:28:44;;;;;;;5.45;4.95;;;16.20;56.40;;;;;;4048192;29;20096;-66
2022/03/05 03:31:10;;;;;;;5.13;4.70;;;16.30;56.10;;;;;;4059205;29;20557;-65
2022/03/05 03:33:32;;;;;;;6.53;4.80;;;16.50;55.80;;;;;;4062636;29;20872;-66
2022/03/05 03:35:54;;;;;;;5.72;4.78;;;16.50;55.50;;;;;;4063262;29;20107;-66
2022/03/05 03:38:16;;;;;;;5.82;5.13;;;16.50;55.40;;;;;;4063580;29;20432;-66
2022/03/05 03:40:38;;;;;;;4.93;4.53;;;16.60;55.40;;;;;;4053678;29;20079;-65
2022/03/05 03:43:01;;;;;;;5.60;4.95;;;16.60;55.30;;;;;;4048079;29;20053;-65
2022/03/05 03:45:25;;;;;;;5.97;4.38;;;16.50;55.30;;;;;;4048072;29;20124;-67
2022/03/05 03:47:50;;;;;;;6.60;5.10;;;16.50;56.00;;;;;;4047856;29;20483;-66
2022/03/05 03:50:14;;;;;;;5.00;4.50;;;16.40;55.50;;;;;;4048761;29;20097;-65
2022/03/05 03:52:36;;;;;;;5.20;4.70;;;16.40;55.60;;;;;;4047919;29;20503;-65
2022/03/05 03:54:59;;;;;;;5.10;4.70;;;16.40;55.60;;;;;;4063207;29;20052;-65
2022/03/05 03:57:21;;;;;;;4.82;4.38;;;16.40;56.30;;;;;;4062902;29;20083;-66
2022/03/05 03:59:45;;;;;;;5.45;4.90;;;16.40;55.60;;;;;;4059138;29;20060;-65
2022/03/05 04:02:09;;;;;;;5.93;4.47;;;16.30;55.70;;;;;;4062545;29;20477;-65
2022/03/05 04:04:32;;;;;;;6.65;5.00;;;16.30;55.70;;;;;;4062900;29;20135;-65
2022/03/05 04:09:34;;;;;;;5.18;4.45;;;16.30;55.80;;;;;;4048496;29;20127;-66
2022/03/05 04:11:56;;;;;;;6.10;4.35;;;16.30;55.90;;;;;;4047922;29;20395;-65
2022/03/05 04:14:18;;;;;;;4.57;4.13;;;16.30;55.80;;;;;;4047658;29;20080;-65
2022/03/05 04:16:41;;;;;;;7.75;4.60;;;16.30;55.70;;;;;;4047865;29;20049;-65
2022/03/05 04:19:04;;;;;;;5.00;4.60;;;16.30;55.70;;;;;;4047932;29;20048;-65
2022/03/05 04:21:26;;;;;;;5.43;4.55;;;16.40;55.60;;;;;;4047576;29;20108;-65
2022/03/05 04:23:48;;;;;;;6.35;4.40;;;16.40;55.60;;;;;;4045936;29;20167;-65
2022/03/05 04:26:10;;;;;;;5.25;4.25;;;16.40;55.50;;;;;;4047791;29;20056;-65
2022/03/05 04:28:32;;;;;;;4.63;4.22;;;16.40;55.40;;;;;;4047455;29;20183;-64
2022/03/05 04:30:55;;;;;;;4.70;4.10;;;16.40;55.30;;;;;;4057339;29;20547;-66
2022/03/05 04:33:17;;;;;;;4.90;4.43;;;16.40;55.10;;;;;;4062417;29;20514;-65
2022/03/05 04:35:41;;;;;;;4.85;4.30;;;16.40;55.00;;;;;;4062472;29;20072;-65
2022/03/05 04:38:03;;;;;;;5.13;4.60;;;16.40;53.90;;;;;;4048311;29;20052;-65
2022/03/05 04:40:25;;;;;;;6.10;5.00;;;16.30;54.80;;;;;;4051626;29;20136;-65
2022/03/05 04:42:48;;;;;;;5.07;4.57;;;16.30;55.30;;;;;;4063268;29;20052;-65
2022/03/05 04:45:11;;;;;;;4.82;4.32;;;16.20;55.40;;;;;;4067867;29;20058;-65
2022/03/05 04:47:33;;;;;;;4.93;4.30;;;16.10;55.50;;;;;;4053149;29;20503;-66
2022/03/05 04:49:55;;;;;;;5.45;4.82;;;16.10;55.50;;;;;;4067706;29;20056;-68
2022/03/05 04:52:19;;;;;;;4.68;4.28;;;16.00;55.50;;;;;;4068077;29;20858;-66
2022/03/05 04:54:42;;;;;;;5.85;4.40;;;15.90;55.80;;;;;;4066436;29;20094;-67
2022/03/05 04:57:05;;;;;;;4.40;4.00;;;15.80;56.10;;;;;;4063765;29;20056;-67
2022/03/05 04:59:28;;;;;;;4.55;4.13;;;15.80;56.50;;;;;;4067847;29;20043;-68
2022/03/05 05:01:50;;;;;;;6.15;4.43;;;15.80;56.50;;;;;;4067717;29;20509;-68
2022/03/05 05:04:12;;;;;;;6.28;4.78;;;15.90;56.10;;;;;;4067597;29;20470;-67
2022/03/05 05:06:34;;;;;;;6.43;4.53;;;16.00;56.00;;;;;;4053792;29;20052;-67
2022/03/05 05:08:58;;;;;;;5.10;4.38;;;16.00;56.60;;;;;;4067741;29;20108;-67
2022/03/05 05:11:21;;;;;;;5.43;4.15;;;16.20;55.70;;;;;;4066898;29;20055;-67
2022/03/05 05:13:43;;;;;;;4.75;4.35;;;16.30;55.30;;;;;;4066329;29;20050;-67
2022/03/05 05:16:05;;;;;;;4.88;4.45;;;16.40;55.10;;;;;;4067672;29;20060;-68
2022/03/05 05:18:28;;;;;;;4.85;4.28;;;16.40;54.70;;;;;;4067600;29;20078;-68
2022/03/05 05:20:51;;;;;;;5.53;5.00;;;16.40;54.80;;;;;;4067955;29;20060;-68
2022/03/05 05:23:13;;;;;;;7.45;4.75;;;16.30;54.90;;;;;;4068297;29;20052;-68
2022/03/05 05:25:37;;;;;;;4.85;4.45;;;16.30;55.10;;;;;;4063006;29;20080;-67
2022/03/05 05:27:58;;;;;;;5.97;4.95;;;16.30;55.90;;;;;;4052193;29;20109;-68
2022/03/05 05:30:21;;;;;;;4.70;4.30;;;16.30;55.90;;;;;;4058539;29;20055;-68
2022/03/05 05:32:43;;;;;;;5.10;4.38;;;16.20;55.10;;;;;;4053656;29;20076;-68
2022/03/05 05:35:06;;;;;;;4.63;4.22;;;16.20;55.30;;;;;;4067349;29;20074;-68
2022/03/05 05:37:28;;;;;;;5.00;4.47;;;16.10;54.70;;;;;;4067305;29;20064;-62
2022/03/05 05:39:50;;;;;;;6.25;4.65;;;16.10;55.10;;;;;;4066606;29;20055;-61
2022/03/05 05:42:18;;;;;;;5.13;4.63;;;16.00;55.30;;;;;;4067278;29;20063;-62
2022/03/05 05:44:41;;;;;;;7.18;4.90;;;16.00;55.60;;;;;;4067463;29;20055;-62
2022/03/05 05:47:05;;;;;;;6.90;4.57;;;16.00;55.70;;;;;;4051469;29;20048;-61
2022/03/05 05:49:27;;;;;;;5.47;4.45;;;16.00;55.60;;;;;;4051658;29;20063;-61
2022/03/05 05:51:50;;;;;;;5.90;4.97;;;16.00;54.60;;;;;;4051519;29;20099;-62
2022/03/05 05:54:12;;;;;;;4.43;4.07;;;16.00;54.40;;;;;;4056504;29;20086;-62
2022/03/05 05:56:34;;;;;;;5.43;4.93;;;16.00;54.10;;;;;;4064919;29;20056;-62
2022/03/05 05:58:58;;;;;;;6.75;4.85;;;16.00;55.10;;;;;;4064476;29;20538;-67
2022/03/05 06:01:19;;;;;;;5.13;4.53;;;16.10;55.30;;;;;;4064301;29;20402;-68
2022/03/05 06:03:44;;;;;;;5.18;4.75;;;16.10;53.20;;;;;;4048955;29;20052;-68
2022/03/05 06:06:06;;;;;;;7.20;5.10;;;16.10;53.60;;;;;;4048860;29;20052;-67
2022/03/05 06:08:29;;;;;;;7.07;4.53;;;16.10;54.20;;;;;;4049447;29;20053;-66
2022/03/05 06:10:52;;;;;;;5.20;4.40;;;16.00;54.10;;;;;;4049304;29;21507;-68
2022/03/05 06:13:15;;;;;;;5.28;4.60;;;16.10;54.00;;;;;;4049786;29;20055;-66
2022/03/05 06:15:38;;;;;;;7.25;5.07;;;16.00;54.80;;;;;;4049540;29;20072;-73
2022/03/05 06:18:00;;;;;;;5.63;5.07;;;16.00;55.20;;;;;;4049918;29;20056;-74
2022/03/05 06:20:22;;;;;;;6.38;5.28;;;16.00;55.60;;;;;;4049046;29;20071;-72
2022/03/05 06:22:44;;;;;;;10.93;4.57;;;16.00;55.70;;;;;;4056341;29;20391;-77
2022/03/05 06:25:08;;;;;;;6.07;5.47;;;15.90;55.60;;;;;;4064750;29;20052;-70
2022/03/05 06:27:30;;;;;;;6.45;4.90;;;15.90;55.30;;;;;;4064568;29;20051;-70
2022/03/05 06:29:52;;;;;;;7.07;4.72;;;15.90;52.60;;;;;;4064081;29;20414;-69
2022/03/05 06:32:17;;;;;;;6.07;5.47;;;15.90;54.40;;;;;;4064366;29;20048;-70
2022/03/05 06:34:39;;;;;;;6.03;5.10;;;15.90;55.30;;;;;;4063313;29;20150;-69
2022/03/05 06:37:01;;;;;;;5.90;5.30;;;16.00;54.70;;;;;;4060907;29;20142;-71
2022/03/05 06:39:24;;;;;;;7.57;5.30;;;16.10;54.20;;;;;;4064422;29;20446;-70
2022/03/05 06:41:47;;;;;;;5.63;4.85;;;16.10;54.60;;;;;;4063902;29;20434;-70
2022/03/05 06:44:10;;;;;;;6.85;4.85;;;16.10;52.70;;;;;;4063478;29;20064;-71
2022/03/05 06:46:32;;;;;;;6.13;5.43;;;16.10;53.30;;;;;;4064471;29;20055;-71
2022/03/05 06:48:55;;;;;;;6.75;5.43;;;16.10;52.50;;;;;;4064089;29;20051;-73
2022/03/05 06:51:18;;;;;;;7.28;5.95;;;16.10;53.50;;;;;;4062559;29;20048;-71
2022/03/05 06:53:40;;;;;;;7.25;5.10;;;16.20;52.70;;;;;;4034432;29;20045;-70
2022/03/05 06:56:03;;;;;;;5.93;5.32;;;16.30;52.20;;;;;;4048489;29;20139;-65
2022/03/05 06:58:25;;;;;;;6.72;4.88;;;16.40;52.40;;;;;;4048098;29;20403;-64
2022/03/05 07:00:47;;;;;;;5.95;4.28;;;16.40;52.50;;;;;;4057520;29;20048;-70
2022/03/05 07:03:10;;;;;;;5.45;4.90;;;16.40;51.80;;;;;;4046946;29;20550;-70
2022/03/05 07:05:33;;;;;;;7.65;5.43;;;16.30;52.60;;;;;;4048592;29;20517;-72
2022/03/05 07:07:55;;;;;;;5.35;4.70;;;16.20;52.20;;;;;;4048777;29;20060;-73
2022/03/05 07:10:17;;;;;;;6.82;5.47;;;16.10;53.40;;;;;;4048018;29;20056;-71
2022/03/05 07:12:40;;;;;;;6.10;5.43;;;16.10;55.30;;;;;;4048452;29;20081;-69
2022/03/05 07:15:02;;;;;;;6.97;5.28;;;16.00;54.50;;;;;;4047625;29;20120;-70
2022/03/05 07:17:25;;;;;;;6.78;5.22;;;16.00;54.40;;;;;;4047980;29;20086;-71
2022/03/05 07:19:47;;;;;;;8.02;5.53;;;15.90;54.50;;;;;;4047938;29;20056;-71
2022/03/05 07:22:11;;;;;;;5.38;4.88;;;15.90;52.50;;;;;;4048297;29;20227;-70
2022/03/05 07:24:33;;;;;;;7.03;5.72;;;15.80;51.40;;;;;;4048959;29;20068;-71
2022/03/05 07:26:59;;;;;;;6.20;5.70;;;15.80;50.30;;;;;;4063193;29;20151;-71
2022/03/05 07:29:22;;;;;;;10.25;5.50;;;15.80;50.00;;;;;;4048635;29;20040;-71
2022/03/05 07:31:45;;;;;;;6.07;5.18;;;15.80;49.00;;;;;;4051903;29;20060;-71
2022/03/05 07:34:11;;;;;;;5.60;5.00;;;15.80;52.80;;;;;;4051942;29;20056;-70
2022/03/05 07:36:34;;;;;;;7.20;5.50;;;15.80;52.60;;;;;;4061560;29;20052;-63
2022/03/05 07:38:57;;;;;;;6.50;5.60;;;15.90;53.20;;;;;;4051655;29;20052;-70
2022/03/05 07:41:20;;;;;;;8.15;5.45;;;15.90;53.60;;;;;;4057091;29;20414;-70
2022/03/05 07:43:42;;;;;;;7.55;5.65;;;16.00;51.90;;;;;;4047995;29;20057;-67
2022/03/05 07:46:04;;;;;;;6.75;5.35;;;16.10;52.70;;;;;;4065218;29;20047;-66
2022/03/05 07:48:27;;;;;;;8.18;5.38;;;16.20;52.20;;;;;;4032952;29;20407;-66
2022/03/05 07:50:51;;;;;;;6.28;5.55;;;16.30;52.20;;;;;;4046440;29;20052;-61
2022/03/05 07:53:14;;;;;;;5.40;4.90;;;16.40;51.30;;;;;;4037340;29;20055;-62
2022/03/05 07:55:38;;;;;;;6.30;5.10;;;16.50;51.00;;;;;;4061754;29;20048;-62
2022/03/05 07:58:01;;;;;;;6.68;5.15;;;16.50;50.40;;;;;;4072970;29;20134;-63
2022/03/05 08:00:23;;;;;;;6.32;5.72;;;16.50;50.40;;;;;;4076903;29;20126;-62
2022/03/05 08:02:46;;;;;;;6.15;4.97;;;16.40;50.70;;;;;;4063452;29;20215;-68
2022/03/05 08:05:09;;;;;;;7.55;5.45;;;16.40;52.40;;;;;;4064265;29;20054;-65
2022/03/05 08:07:32;;;;;;;7.43;5.82;;;16.30;52.00;;;;;;4063487;29;20408;-66
2022/03/05 08:09:54;;;;;;;6.15;5.18;;;16.20;51.00;;;;;;4061809;29;20103;-66
2022/03/05 08:12:18;;;;;;;7.43;6.13;;;16.20;52.10;;;;;;4062951;29;20055;-67
2022/03/05 08:14:41;;;;;;;6.32;5.57;;;16.10;53.20;;;;;;4062998;29;20048;-66
2022/03/05 08:17:04;;;;;;;6.68;6.03;;;16.20;53.40;;;;;;4062747;29;20463;-67
2022/03/05 08:19:26;;;;;;;7.65;5.68;;;16.20;53.10;;;;;;4062953;29;20487;-66
2022/03/05 08:22:09;;;;;;;6.55;5.93;;;16.30;52.80;;;;;;4060983;29;20155;-66
2022/03/05 08:24:31;;;;;;;6.63;6.00;;;16.30;53.00;;;;;;4058760;29;20752;-65
2022/03/05 08:26:53;;;;;;;6.63;5.85;;;16.30;52.50;;;;;;4062675;29;20052;-64
2022/03/05 08:29:17;;;;;;;7.13;5.78;;;16.30;52.90;;;;;;4062887;29;20063;-64
2022/03/05 08:31:39;;;;;;;6.88;5.85;;;16.20;54.00;;;;;;4062525;29;20067;-66
2022/03/05 08:34:02;;;;;;;7.53;5.60;;;16.20;53.80;;;;;;4056219;29;20055;-66
2022/03/05 08:36:24;;;;;;;8.32;6.07;;;16.30;52.80;;;;;;4079035;29;20046;-66
2022/03/05 08:38:46;;;;;;;7.35;6.65;;;16.40;53.70;;;;;;4051194;29;20131;-66
2022/03/05 08:41:09;;;;;;;9.75;6.95;;;16.50;53.30;;;;;;4058126;29;20059;-66
2022/03/05 08:43:31;;;;;;;9.07;6.88;;;16.50;52.60;;;;;;4062834;29;20107;-66
2022/03/05 08:45:55;;;;;;;10.55;6.60;;;16.50;52.30;;;;;;4062628;29;20112;-66
2022/03/05 08:48:18;;;;;;;7.68;6.45;;;16.50;52.20;;;;;;4063025;29;20051;-65
2022/03/05 08:50:40;;;;;;;9.00;6.47;;;16.50;52.70;;;;;;4056613;29;20052;-65
2022/03/05 08:53:02;;;;;;;9.02;6.63;;;16.40;53.10;;;;;;4047383;29;20159;-65
2022/03/05 08:55:24;;;;;;;9.45;7.07;;;16.30;53.70;;;;;;4047378;29;20147;-65
2022/03/05 08:57:47;;;;;;;7.88;6.68;;;16.20;53.90;;;;;;4057045;29;20063;-62
2022/03/05 09:00:11;;;;;;;8.50;7.25;;;16.10;54.00;;;;;;4062914;29;20490;-64
2022/03/05 09:02:35;;;;;;;8.05;6.82;;;16.10;54.00;;;;;;4062790;29;20075;-65
2022/03/05 09:04:58;;;;;;;10.60;7.07;;;16.10;54.40;;;;;;4060278;29;20154;-65
2022/03/05 09:07:20;;;;;;;9.43;7.28;;;16.10;54.30;;;;;;4052009;29;20053;-65
2022/03/05 09:09:43;;;;;;;9.77;7.70;;;16.10;54.40;;;;;;4053445;29;20060;-65
2022/03/05 09:12:06;;;;;;;8.90;6.90;;;16.10;53.70;;;;;;4062060;29;20055;-65
2022/03/05 09:14:28;;;;;;;10.43;8.02;;;16.10;53.00;;;;;;4058644;29;20049;-65
2022/03/05 09:16:50;;;;;;;11.80;7.75;;;16.20;53.90;;;;;;4071480;29;20075;-65
2022/03/05 09:19:14;;;;;;;9.88;7.78;;;16.20;54.50;;;;;;4065105;29;20104;-64
2022/03/05 09:21:37;;;;;;;9.45;7.47;;;16.10;54.20;;;;;;4065721;29;20059;-64
2022/03/05 09:24:00;;;;;;;8.55;7.00;;;16.20;54.30;;;;;;4055270;29;20494;-64
2022/03/05 09:26:22;;;;;;;9.05;6.97;;;16.20;54.10;;;;;;4061116;29;20068;-63
2022/03/05 09:28:44;;;;;;;9.43;7.97;;;16.30;54.20;;;;;;4072337;29;20465;-64
2022/03/05 09:31:07;;;;;;;9.05;7.32;;;16.30;53.20;;;;;;4071186;29;20052;-64
2022/03/05 09:33:29;;;;;;;11.77;7.50;;;16.30;53.40;;;;;;4065762;29;20421;-63
2022/03/05 09:35:54;;;;;;;9.98;7.53;;;16.40;54.00;;;;;;4065336;29;20056;-64
2022/03/05 09:38:16;;;;;;;8.65;7.47;;;16.40;54.00;;;;;;4056584;29;20052;-63
2022/03/05 09:40:39;;;;;;;7.60;6.90;;;16.30;54.10;;;;;;4049959;29;20495;-64
2022/03/05 09:43:03;;;;;;;7.60;6.80;;;16.30;54.40;;;;;;4049817;29;20151;-63
2022/03/05 09:45:25;;;;;;;9.57;6.97;;;16.30;54.30;;;;;;4053854;29;20048;-63
2022/03/05 09:47:48;;;;;;;9.27;7.72;;;16.40;54.00;;;;;;4059334;29;20382;-63
2022/03/05 09:50:11;;;;;;;14.40;7.55;;;16.30;54.10;;;;;;4057835;29;20105;-64
2022/03/05 09:52:35;;;;;;;7.63;6.55;;;16.30;52.80;;;;;;4063478;29;20054;-63
2022/03/05 09:54:57;;;;;;;9.82;7.45;;;16.30;53.60;;;;;;4049590;29;20139;-63
2022/03/05 09:57:19;;;;;;;10.23;7.53;;;16.20;53.50;;;;;;4049501;29;20566;-64
2022/03/05 09:59:42;;;;;;;14.30;7.50;;;16.20;54.50;;;;;;4051793;29;20052;-64
2022/03/05 10:02:05;;;;;;;9.68;7.78;;;16.20;54.70;;;;;;4058962;29;20104;-64
2022/03/05 10:04:27;;;;;;;12.18;8.75;;;16.40;54.60;;;;;;4048484;29;20163;-63
2022/03/05 10:07:09;;;;;;;11.43;8.20;;;16.70;54.40;;;;;;4058650;29;20048;-64
2022/03/05 10:09:32;;;;;;;11.60;8.38;;;17.20;53.00;;;;;;4065246;29;20082;-63
2022/03/05 10:11:54;;;;;;;10.13;8.32;;;17.60;51.50;;;;;;4066011;29;20060;-63
2022/03/05 10:14:19;;;;;;;9.73;8.23;;;17.90;51.10;;;;;;4061640;29;20143;-63
2022/03/05 10:16:41;;;;;;;11.35;8.00;;;18.30;49.40;;;;;;4050540;29;20048;-63
2022/03/05 10:19:17;;;;;;;10.98;8.40;;;18.60;50.00;;;;;;4056830;29;20107;-61
2022/03/05 10:21:39;;;;;;;14.05;8.38;;;18.80;49.20;;;;;;4062301;29;20654;-62
2022/03/05 10:24:07;;;;;;;9.55;7.45;;;18.90;49.50;;;;;;4060911;29;20487;-63
2022/03/05 10:26:54;;;;;;;10.32;8.30;;;19.00;50.00;;;;;;4049353;29;20076;-62
2022/03/05 10:29:22;;;;;;;10.43;7.95;;;19.00;49.90;;;;;;4034878;29;20045;-63
2022/03/05 10:31:56;;;;;;;10.77;7.95;;;19.00;47.50;;;;;;4056956;29;20048;-63
2022/03/05 10:34:19;;;;;;;10.38;7.72;;;18.90;49.50;;;;;;4049987;29;20064;-63
2022/03/05 10:36:41;;;;;;;9.27;7.80;;;18.90;49.90;;;;;;4050509;29;20088;-63
2022/03/05 10:39:04;;;;;;;11.70;8.52;;;18.80;49.40;;;;;;4062802;29;20079;-64
2022/03/05 10:41:34;;;;;;;45.80;11.07;;;18.70;49.40;;;;;;4064221;29;20062;-63
2022/03/05 10:44:07;;;;;;;65.65;13.68;;;18.60;50.20;;;;;;4059223;29;20065;-63
2022/03/05 10:46:37;;;;;;;35.85;11.10;;;18.40;50.60;;;;;;4057084;29;20044;-64
2022/03/05 10:49:07;;;;;;;11.93;8.65;;;18.40;51.00;;;;;;4049440;29;20063;-63
2022/03/05 10:51:29;;;;;;;9.80;7.97;;;18.40;50.30;;;;;;4053987;29;20150;-64
2022/03/05 10:53:52;;;;;;;12.65;9.20;;;18.30;51.10;;;;;;4055157;29;20480;-63
2022/03/05 10:56:29;;;;;;;11.48;8.98;;;18.30;49.90;;;;;;4064508;29;20581;-64
2022/03/05 10:59:02;;;;;;;11.15;9.00;;;18.30;50.60;;;;;;4059674;29;20501;-63
2022/03/05 11:01:26;;;;;;;13.85;9.27;;;18.20;50.90;;;;;;4063853;29;20048;-64
2022/03/05 11:03:49;;;;;;;10.95;8.88;;;18.20;50.70;;;;;;4064237;29;20083;-64
2022/03/05 11:06:11;;;;;;;46.83;12.10;;;18.20;51.00;;;;;;4064193;29;20449;-63
2022/03/05 11:08:33;;;;;;;19.42;10.00;;;18.30;50.70;;;;;;4064154;29;20476;-63
2022/03/05 11:10:56;;;;;;;12.35;9.63;;;18.30;51.00;;;;;;4059171;29;20391;-63
2022/03/05 11:13:18;;;;;;;13.23;9.40;;;18.30;50.90;;;;;;4048512;29;20116;-64
2022/03/05 11:15:41;;;;;;;12.65;9.05;;;18.30;50.70;;;;;;4034084;29;20057;-63
2022/03/05 11:18:05;;;;;;;10.75;9.15;;;18.30;51.10;;;;;;4050356;29;20527;-63
2022/03/05 11:20:28;;;;;;;242.55;29.33;;;18.30;51.60;;;;;;4064768;29;20478;-64
2022/03/05 11:22:51;;;;;;;19.83;10.13;;;18.40;50.60;;;;;;4048251;29;20072;-63
2022/03/05 11:25:15;;;;;;;35.42;11.27;;;18.50;49.60;;;;;;4057773;29;20438;-63
2022/03/05 11:27:37;;;;;;;10.70;9.25;;;18.60;50.60;;;;;;4046131;29;20052;-63
2022/03/05 11:30:01;;;;;;;14.88;9.32;;;18.60;50.00;;;;;;4062573;29;20378;-64
2022/03/05 11:32:28;;;;;;;12.02;8.43;;;18.60;50.20;;;;;;4053007;29;20103;-65
2022/03/05 11:34:53;;;;;;;10.38;9.27;;;18.60;50.00;;;;;;4063777;29;20056;-65
2022/03/05 11:37:25;;;;;;;9.88;8.38;;;18.50;48.90;;;;;;4062743;29;20060;-66
2022/03/05 11:39:48;;;;;;;12.20;8.70;;;18.40;49.00;;;;;;4061377;29;20079;-64
2022/03/05 11:42:11;;;;;;;11.90;8.68;;;18.30;49.80;;;;;;4062800;29;20076;-65
2022/03/05 11:44:41;;;;;;;11.15;9.07;;;18.20;49.50;;;;;;4061940;29;20051;-64
2022/03/05 11:47:23;;;;;;;13.25;9.43;;;18.10;50.20;;;;;;4062696;29;20055;-64
2022/03/05 11:50:16;;;;;;;11.48;9.73;;;18.00;49.60;;;;;;4048892;29;20064;-64
2022/03/05 11:53:15;;;;;;;11.60;8.70;;;18.00;48.50;;;;;;4031059;29;20056;-64
2022/03/05 11:55:41;;;;;;;12.05;9.18;;;18.00;48.40;;;;;;4053818;29;20048;-64
2022/03/05 11:58:27;;;;;;;11.23;8.80;;;17.90;50.30;;;;;;4048277;29;20418;-63
2022/03/05 12:00:52;;;;;;;11.18;9.15;;;17.90;48.30;;;;;;4052761;29;20099;-62
2022/03/05 12:03:23;;;;;;;12.50;9.43;;;17.80;47.50;;;;;;4048364;29;20060;-60
2022/03/05 12:05:58;;;;;;;12.38;8.88;;;17.80;50.80;;;;;;4052135;29;20139;-61
2022/03/05 12:08:43;;;;;;;13.43;9.55;;;17.80;52.10;;;;;;4061744;29;20059;-61
2022/03/05 12:11:11;;;;;;;12.88;9.02;;;17.90;52.50;;;;;;4063010;29;20104;-62
2022/03/05 12:13:33;;;;;;;10.70;8.73;;;17.90;51.90;;;;;;4063110;29;20079;-61
2022/03/05 12:15:57;;;;;;;12.80;9.32;;;18.00;53.10;;;;;;4063107;29;20152;-61
2022/03/05 12:18:21;;;;;;;11.45;8.55;;;18.00;52.50;;;;;;4062991;29;20154;-61
2022/03/05 12:20:46;;;;;;;13.85;8.68;;;17.90;51.60;;;;;;4061544;29;20051;-62
2022/03/05 12:23:11;;;;;;;12.70;9.13;;;17.90;52.10;;;;;;4052063;29;20049;-61
2022/03/05 12:25:35;;;;;;;17.92;9.43;;;17.90;51.80;;;;;;4046971;29;20040;-61
2022/03/05 12:27:58;;;;;;;13.77;10.02;;;17.80;51.40;;;;;;4046472;29;20053;-61
2022/03/05 12:30:23;;;;;;;14.07;10.40;;;17.80;52.20;;;;;;4047547;29;20471;-62